Time;durP1;ratioP1;P1;durP2;ratioP2;P2;SDS_P1;SDS_P2;PMS_P1;PMS_P2;Temp;Humidity;BMP_temperature;BMP_pressure;BME280_temperature;BME280_humidity;BME280_pressure;Samples;Min_cycle;Max_cycle;Signal;HPM_P1;HPM_P2
2022/04/26 03:37:38;;;;;;;18.50;14.10;;;10.80;99.90;;;;;;5076876;28;20215;-72
2022/04/26 03:40:04;;;;;;;18.30;14.57;;;10.80;99.90;;;;;;5061541;28;20172;-74
2022/04/26 03:42:36;;;;;;;17.97;13.83;;;10.80;99.90;;;;;;5075001;28;20200;-73
2022/04/26 03:45:02;;;;;;;17.07;13.63;;;10.80;99.90;;;;;;5069760;28;20161;-71
2022/04/26 03:47:27;;;;;;;22.33;17.93;;;10.90;99.90;;;;;;5114522;27;20177;-73
2022/04/26 03:49:55;;;;;;;18.57;15.50;;;10.90;99.90;;;;;;5070943;28;20219;-72
2022/04/26 03:52:23;;;;;;;18.70;14.30;;;11.00;99.90;;;;;;5064144;28;20191;-72
2022/04/26 03:54:49;;;;;;;17.97;14.23;;;11.00;99.90;;;;;;5074807;28;20295;-71
2022/04/26 03:57:14;;;;;;;16.17;13.20;;;11.10;99.90;;;;;;5067111;28;20343;-72
2022/04/26 03:59:40;;;;;;;14.00;12.17;;;11.10;99.90;;;;;;5084232;28;20177;-72
2022/04/26 04:02:08;;;;;;;12.77;10.43;;;11.10;99.90;;;;;;5074763;28;20196;-71
2022/04/26 04:04:34;;;;;;;15.53;12.53;;;11.20;99.90;;;;;;5069254;28;20470;-73
2022/04/26 04:07:04;;;;;;;21.27;17.70;;;11.20;99.90;;;;;;5070754;28;20227;-73
2022/04/26 04:09:32;;;;;;;15.73;12.90;;;11.20;99.90;;;;;;5084426;28;20184;-73
2022/04/26 04:11:57;;;;;;;12.33;10.57;;;11.30;99.90;;;;;;5074836;28;20180;-72
2022/04/26 04:14:23;;;;;;;10.88;9.27;;;11.30;99.90;;;;;;5070757;28;20212;-72
2022/04/26 04:16:49;;;;;;;10.33;8.83;;;11.30;99.90;;;;;;5117894;27;20254;-73
2022/04/26 04:19:24;;;;;;;10.17;8.77;;;11.30;99.90;;;;;;5091421;28;20263;-72
2022/04/26 04:21:51;;;;;;;9.20;8.18;;;11.40;99.90;;;;;;5066402;28;20215;-72
2022/04/26 04:24:17;;;;;;;9.97;8.37;;;11.40;99.90;;;;;;5073344;28;20196;-72
2022/04/26 04:26:43;;;;;;;11.15;9.63;;;11.40;99.90;;;;;;5081682;28;20207;-71
2022/04/26 04:29:12;;;;;;;9.30;8.20;;;11.40;99.90;;;;;;5064885;28;20207;-72
2022/04/26 04:31:40;;;;;;;9.82;8.48;;;11.40;99.90;;;;;;5059767;28;20211;-72
2022/04/26 04:34:06;;;;;;;14.10;11.60;;;11.40;99.90;;;;;;5074196;28;20212;-72
2022/04/26 04:36:32;;;;;;;11.63;10.23;;;11.40;99.90;;;;;;5073955;28;20277;-70
2022/04/26 04:39:00;;;;;;;10.65;9.52;;;11.40;99.90;;;;;;5073929;28;20176;-72
2022/04/26 04:41:35;;;;;;;9.63;8.43;;;11.50;99.90;;;;;;5074303;28;20206;-71
2022/04/26 04:44:01;;;;;;;9.03;8.00;;;11.50;99.90;;;;;;5055255;28;20169;-70
2022/04/26 04:46:27;;;;;;;9.95;8.15;;;11.50;99.90;;;;;;5061907;28;20212;-70
2022/04/26 04:48:53;;;;;;;10.40;9.30;;;11.50;99.90;;;;;;5072185;28;20258;-73
2022/04/26 04:51:18;;;;;;;10.30;8.60;;;11.50;99.90;;;;;;5070721;28;20195;-72
2022/04/26 04:53:46;;;;;;;9.53;7.63;;;11.50;99.90;;;;;;5087859;28;20220;-72
2022/04/26 04:56:12;;;;;;;7.57;6.63;;;11.50;99.90;;;;;;5105934;28;20196;-73
2022/04/26 04:58:38;;;;;;;9.37;7.07;;;11.50;99.90;;;;;;5076060;28;20176;-72
2022/04/26 05:01:04;;;;;;;7.37;6.47;;;11.40;99.90;;;;;;5074151;28;20269;-73
2022/04/26 05:03:29;;;;;;;7.70;6.70;;;11.50;99.90;;;;;;5075748;28;20240;-73
2022/04/26 05:05:57;;;;;;;6.03;5.43;;;11.40;99.90;;;;;;5073087;28;20286;-73
2022/04/26 05:08:24;;;;;;;6.43;5.73;;;11.40;99.90;;;;;;5074114;28;20184;-73
2022/04/26 05:10:50;;;;;;;6.00;5.40;;;11.40;99.90;;;;;;5057757;28;20220;-73
2022/04/26 05:13:19;;;;;;;5.67;5.00;;;11.40;99.90;;;;;;5075302;28;20189;-72
2022/04/26 05:15:44;;;;;;;5.05;4.22;;;11.40;99.90;;;;;;5065666;28;20283;-73
2022/04/26 05:18:12;;;;;;;5.60;4.93;;;11.40;99.90;;;;;;5078526;28;20221;-72
2022/04/26 05:20:38;;;;;;;5.13;4.63;;;11.40;99.90;;;;;;5069435;28;20192;-72
2022/04/26 05:25:48;;;;;;;4.77;4.37;;;11.50;99.90;;;;;;5074429;28;20234;-72
2022/04/26 05:28:14;;;;;;;5.33;4.83;;;11.50;99.90;;;;;;5073184;28;20204;-73
2022/04/26 05:30:40;;;;;;;5.38;4.78;;;11.50;99.90;;;;;;5075567;28;20181;-70
2022/04/26 05:33:05;;;;;;;4.60;4.05;;;11.50;99.90;;;;;;5078583;28;20196;-72
2022/04/26 05:35:31;;;;;;;4.18;3.78;;;11.50;99.90;;;;;;5069846;28;20267;-72
2022/04/26 05:37:57;;;;;;;4.67;4.17;;;11.60;99.90;;;;;;5070181;28;20268;-73
2022/04/26 05:40:22;;;;;;;3.80;3.50;;;11.60;99.90;;;;;;5070242;28;20169;-73
2022/04/26 05:42:48;;;;;;;3.90;3.50;;;11.60;99.90;;;;;;5055449;28;20181;-72
2022/04/26 05:45:14;;;;;;;4.45;3.70;;;11.60;99.90;;;;;;5073093;28;20177;-73
2022/04/26 05:47:44;;;;;;;3.05;2.75;;;11.70;99.90;;;;;;5073148;28;20197;-72
2022/04/26 05:50:14;;;;;;;3.13;2.83;;;11.70;99.90;;;;;;5073611;28;20194;-72
2022/04/26 05:52:40;;;;;;;2.88;2.67;;;11.80;99.90;;;;;;5066539;28;20247;-72
2022/04/26 05:55:07;;;;;;;3.17;2.88;;;11.80;99.90;;;;;;5066476;28;20197;-72
2022/04/26 05:57:38;;;;;;;4.35;3.95;;;11.80;99.90;;;;;;5066311;28;20313;-72
2022/04/26 06:00:06;;;;;;;5.25;4.72;;;11.80;99.90;;;;;;5098652;28;20193;-72
2022/04/26 06:02:32;;;;;;;5.88;5.00;;;11.90;99.90;;;;;;5107099;28;20184;-74
2022/04/26 06:04:57;;;;;;;5.75;5.22;;;11.90;99.90;;;;;;5104930;28;20209;-72
2022/04/26 06:07:23;;;;;;;6.43;5.82;;;11.90;99.90;;;;;;5073077;28;20238;-72
2022/04/26 06:09:53;;;;;;;6.97;6.28;;;11.90;99.90;;;;;;5072469;28;20187;-72
2022/04/26 06:12:28;;;;;;;6.93;6.18;;;11.90;99.90;;;;;;5053375;28;20201;-73
2022/04/26 06:14:54;;;;;;;7.78;6.97;;;12.00;99.90;;;;;;5072670;28;20200;-72
2022/04/26 06:17:20;;;;;;;7.80;6.80;;;12.00;99.90;;;;;;5057597;28;20236;-72
2022/04/26 06:19:46;;;;;;;8.50;7.45;;;12.00;99.90;;;;;;5061055;28;20192;-73
2022/04/26 06:22:12;;;;;;;7.40;6.70;;;12.00;99.90;;;;;;5107457;28;20177;-73
2022/04/26 06:24:37;;;;;;;8.88;7.28;;;12.00;99.90;;;;;;5106701;28;20211;-73
2022/04/26 06:27:03;;;;;;;8.32;7.43;;;12.00;99.90;;;;;;5073403;28;20183;-73
2022/04/26 06:29:29;;;;;;;9.20;8.13;;;12.10;99.90;;;;;;5073050;28;20204;-72
2022/04/26 06:31:55;;;;;;;8.60;7.68;;;12.10;99.90;;;;;;5072601;28;20279;-72
2022/04/26 06:34:23;;;;;;;8.70;7.70;;;12.20;99.90;;;;;;5073276;28;20208;-71
2022/04/26 06:36:49;;;;;;;10.00;8.68;;;12.20;99.90;;;;;;5072608;28;20201;-71
2022/04/26 06:39:14;;;;;;;10.93;9.77;;;12.20;99.90;;;;;;5072266;28;20180;-71
2022/04/26 06:41:40;;;;;;;13.13;10.05;;;12.30;99.90;;;;;;5073602;28;20187;-72
2022/04/26 06:44:06;;;;;;;12.77;10.73;;;12.30;99.90;;;;;;5089040;28;20306;-73
2022/04/26 06:46:36;;;;;;;12.23;10.45;;;12.40;99.90;;;;;;5076572;28;20173;-71
2022/04/26 06:49:05;;;;;;;12.82;10.57;;;12.40;99.90;;;;;;5095057;28;20172;-72
2022/04/26 06:51:33;;;;;;;12.93;10.82;;;12.40;99.90;;;;;;5067617;28;20243;-72
2022/04/26 06:53:59;;;;;;;14.05;11.55;;;12.40;99.90;;;;;;5072466;28;20244;-72
2022/04/26 06:56:24;;;;;;;13.30;11.25;;;12.40;99.90;;;;;;5069321;28;21704;-72
2022/04/26 06:58:52;;;;;;;13.98;11.18;;;12.40;99.90;;;;;;5102233;27;20207;-72
2022/04/26 07:01:20;;;;;;;12.85;10.82;;;12.40;99.90;;;;;;5078498;28;20173;-71
2022/04/26 07:03:48;;;;;;;11.95;10.50;;;12.50;99.90;;;;;;5065070;28;20222;-72
2022/04/26 07:06:13;;;;;;;14.48;12.15;;;12.40;99.90;;;;;;5076327;28;20196;-72
2022/04/26 07:08:39;;;;;;;11.55;10.13;;;12.40;99.90;;;;;;5076032;28;20184;-72
2022/04/26 07:11:07;;;;;;;10.93;9.57;;;12.50;99.90;;;;;;5079128;28;20176;-73
2022/04/26 07:13:32;;;;;;;11.50;9.80;;;12.40;99.90;;;;;;5078382;28;20220;-71
2022/04/26 07:16:00;;;;;;;11.10;9.55;;;12.40;99.90;;;;;;5071635;28;20266;-72
2022/04/26 07:18:26;;;;;;;10.57;9.10;;;12.50;99.90;;;;;;5075363;28;20180;-73
2022/04/26 07:20:52;;;;;;;9.25;8.02;;;12.40;99.90;;;;;;5076154;28;20252;-72
2022/04/26 07:23:23;;;;;;;9.75;7.38;;;12.40;99.90;;;;;;5074159;28;20227;-71
2022/04/26 07:25:48;;;;;;;8.18;6.90;;;12.40;99.90;;;;;;5085941;28;20196;-72
2022/04/26 07:28:14;;;;;;;7.38;6.65;;;12.40;99.90;;;;;;5072899;28;20264;-72
2022/04/26 07:30:41;;;;;;;7.43;6.60;;;12.30;99.90;;;;;;5074008;28;20173;-72
2022/04/26 07:35:56;;;;;;;6.63;5.78;;;12.20;99.90;;;;;;5073782;28;20218;-72
2022/04/26 07:38:22;;;;;;;7.68;5.75;;;12.30;99.90;;;;;;5078599;28;20196;-73
2022/04/26 07:40:48;;;;;;;6.95;5.95;;;12.30;99.90;;;;;;5070312;28;20165;-72
2022/04/26 07:43:16;;;;;;;5.93;5.32;;;12.30;99.90;;;;;;5092647;28;20186;-72
2022/04/26 07:45:47;;;;;;;6.13;5.40;;;12.30;99.90;;;;;;5056010;28;20184;-71
2022/04/26 07:48:16;;;;;;;8.25;7.07;;;12.40;99.90;;;;;;5076802;28;20188;-70
2022/04/26 07:50:45;;;;;;;8.88;7.90;;;12.40;99.90;;;;;;5105268;28;20197;-72
2022/04/26 07:53:10;;;;;;;14.55;12.55;;;12.50;99.90;;;;;;5074157;28;20168;-73
2022/04/26 07:55:38;;;;;;;21.95;17.55;;;12.50;99.90;;;;;;5093001;28;20256;-73
2022/04/26 07:58:06;;;;;;;18.60;15.77;;;12.50;99.90;;;;;;5071716;28;20177;-73
2022/04/26 08:00:33;;;;;;;15.23;13.63;;;12.50;99.90;;;;;;5092541;28;20176;-73
2022/04/26 08:03:02;;;;;;;16.10;14.18;;;12.40;99.90;;;;;;5067127;28;20215;-73
2022/04/26 08:05:34;;;;;;;16.10;13.50;;;12.40;99.90;;;;;;5076688;28;20179;-72
2022/04/26 08:08:02;;;;;;;17.98;15.65;;;12.30;99.90;;;;;;5071426;28;20234;-71
2022/04/26 08:10:27;;;;;;;16.40;14.60;;;12.30;99.90;;;;;;5097024;28;20197;-73
2022/04/26 08:12:55;;;;;;;21.83;17.52;;;12.30;99.90;;;;;;5072324;28;20177;-73
